East Harwich, Massachusetts
Current Conditions -  °F | °C
As of 12:29 AM on Thursday 23 Oct 2014 (Local Time) from KCQX Reporting Station
Thunderstorm Thunderstorm  
Wind Chill: 58°   Ceiling: 300
Heat Index: 58°   Visibility: 4mi
Dew Point: 58°   Wind: 18mph
Humidity: 100%   Direction: 50°NE
Pressure: 29.66"   Gusts: 30mph
Location:  41.7026°N, 70.0637°W
Report Text: KCQX 230429Z AUTO 05016G26KT 4SM TS BR OVC003 14/14 A2966 RMK AO2 PK WND 04026/0429 LTG DSNT SE AND W RAE01 TSB23 P0000 T01440144
Loading
Personal Weather Stations






























Interactive Weather Map
Tropical Storm Tracking
New forecast layout! Learn more

10-Day Weather Forecast

Advertisements
Track Severe Weather on mobile